createdAt,value
2022-08-25T00:02:00.112Z,100.00
2022-08-25T00:04:29.720Z,100.00
2022-08-25T00:07:02.123Z,100.00
2022-08-25T00:09:30.836Z,100.00
2022-08-25T00:11:57.785Z,100.00
2022-08-25T00:14:28.859Z,100.00
2022-08-25T00:16:56.328Z,100.00
2022-08-25T00:19:29.730Z,100.00
2022-08-25T00:21:57.633Z,100.00
2022-08-25T00:24:25.590Z,100.00
2022-08-25T00:26:55.283Z,100.00
2022-08-25T00:29:24.593Z,100.00
2022-08-25T00:31:52.545Z,100.00
2022-08-25T00:34:26.439Z,100.00
2022-08-25T00:36:53.855Z,100.00
2022-08-25T00:39:23.041Z,100.00
2022-08-25T00:41:52.276Z,100.00
2022-08-25T00:44:20.072Z,100.00
2022-08-25T00:46:52.675Z,100.00
2022-08-25T00:49:25.320Z,100.00
2022-08-25T00:51:54.128Z,100.00
2022-08-25T00:54:27.275Z,100.00
2022-08-25T00:56:54.255Z,100.00
2022-08-25T00:59:22.491Z,100.00
2022-08-25T01:01:51.161Z,100.00
2022-08-25T01:04:18.623Z,100.00
2022-08-25T01:06:46.178Z,100.00
2022-08-25T01:09:16.274Z,100.00
2022-08-25T01:11:44.494Z,100.00
2022-08-25T01:14:12.499Z,100.00
2022-08-25T01:16:39.720Z,100.00
2022-08-25T01:19:08.577Z,100.00
2022-08-25T01:21:45.540Z,100.00
2022-08-25T01:24:39.379Z,100.00
2022-08-25T01:27:07.274Z,100.00
2022-08-25T01:29:36.139Z,100.00
2022-08-25T01:32:06.787Z,100.00
2022-08-25T01:34:37.643Z,100.00
2022-08-25T01:37:05.147Z,100.00
2022-08-25T01:39:33.982Z,100.00
2022-08-25T01:42:08.987Z,100.00
2022-08-25T01:44:38.464Z,100.00
2022-08-25T01:47:06.585Z,100.00
2022-08-25T01:49:34.857Z,100.00
2022-08-25T01:52:07.579Z,100.00
2022-08-25T01:54:34.353Z,100.00
2022-08-25T01:57:02.023Z,100.00
2022-08-25T01:59:29.201Z,100.00
2022-08-25T02:01:59.864Z,100.00
2022-08-25T02:04:32.126Z,100.00
2022-08-25T02:07:04.178Z,100.00
2022-08-25T02:09:30.734Z,100.00
2022-08-25T02:11:57.712Z,100.00
2022-08-25T02:14:24.314Z,100.00
2022-08-25T02:16:52.806Z,100.00
2022-08-25T02:19:21.784Z,100.00
2022-08-25T02:21:49.593Z,100.00
2022-08-25T02:24:16.741Z,100.00
2022-08-25T02:26:43.274Z,100.00
2022-08-25T02:29:10.791Z,100.00
2022-08-25T02:31:37.819Z,100.00
2022-08-25T02:34:05.452Z,100.00
2022-08-25T02:36:32.395Z,100.00
2022-08-25T02:38:59.511Z,100.00
2022-08-25T02:41:31.049Z,100.00
2022-08-25T02:43:59.199Z,100.00
2022-08-25T02:46:25.975Z,100.00
2022-08-25T02:48:53.221Z,100.00
2022-08-25T02:51:22.026Z,100.00
2022-08-25T02:53:48.793Z,100.00
2022-08-25T02:56:15.963Z,100.00
2022-08-25T02:58:42.423Z,100.00
2022-08-25T03:01:11.837Z,100.00
2022-08-25T03:03:40.398Z,100.00
2022-08-25T03:06:09.976Z,100.00
2022-08-25T03:08:37.271Z,100.00
2022-08-25T03:11:04.338Z,100.00
2022-08-25T03:13:32.203Z,100.00
2022-08-25T03:15:59.759Z,100.00
2022-08-25T03:18:26.554Z,100.00
2022-08-25T03:20:52.990Z,100.00
2022-08-25T03:23:19.830Z,100.00
2022-08-25T03:26:05.180Z,100.00
2022-08-25T03:28:32.994Z,100.00
2022-08-25T03:31:02.919Z,100.00
2022-08-25T03:33:29.865Z,100.00
2022-08-25T03:35:56.848Z,100.00
2022-08-25T03:38:25.304Z,100.00
2022-08-25T03:40:53.509Z,100.00
2022-08-25T03:43:20.533Z,100.00
2022-08-25T03:45:48.033Z,100.00
2022-08-25T03:48:15.654Z,100.00
2022-08-25T03:50:51.563Z,100.00
2022-08-25T03:53:19.547Z,100.00
2022-08-25T03:55:45.935Z,100.00
2022-08-25T03:58:12.642Z,100.00
2022-08-25T04:00:40.840Z,100.00
2022-08-25T04:03:07.693Z,100.00
2022-08-25T04:05:34.174Z,100.00
2022-08-25T04:08:01.885Z,100.00
2022-08-25T04:10:29.221Z,100.00
2022-08-25T04:12:56.096Z,100.00
2022-08-25T04:15:22.927Z,100.00
2022-08-25T04:17:51.845Z,100.00
2022-08-25T04:20:18.985Z,100.00
2022-08-25T04:22:45.594Z,100.00
2022-08-25T04:25:12.582Z,100.00
2022-08-25T04:27:39.068Z,100.00
2022-08-25T04:30:06.526Z,100.00
2022-08-25T04:32:32.955Z,100.00
2022-08-25T04:34:59.945Z,100.00
2022-08-25T04:37:26.473Z,100.00
2022-08-25T04:39:54.137Z,100.00
2022-08-25T04:42:45.586Z,100.00
2022-08-25T04:45:14.645Z,100.00
2022-08-25T04:47:41.178Z,100.00
2022-08-25T04:50:08.389Z,100.00
2022-08-25T04:52:34.808Z,100.00
2022-08-25T04:55:01.302Z,100.00
2022-08-25T04:57:28.239Z,100.00
2022-08-25T04:59:55.570Z,100.00
2022-08-25T05:02:25.173Z,100.00
2022-08-25T05:04:51.981Z,100.00
2022-08-25T05:07:18.532Z,100.00
2022-08-25T05:09:45.008Z,100.00
2022-08-25T05:12:11.825Z,100.00
2022-08-25T05:14:39.451Z,100.00
2022-08-25T05:17:06.938Z,100.00
2022-08-25T05:19:33.473Z,100.00
2022-08-25T05:21:59.918Z,100.00
2022-08-25T05:24:27.904Z,100.00
2022-08-25T05:26:54.398Z,100.00
2022-08-25T05:29:20.934Z,100.00
2022-08-25T05:31:50.666Z,100.00
2022-08-25T05:34:18.884Z,100.00
2022-08-25T05:36:45.714Z,100.00
2022-08-25T05:39:12.797Z,100.00
2022-08-25T05:41:39.298Z,100.00
2022-08-25T05:44:05.682Z,100.00
2022-08-25T05:46:32.830Z,100.00
2022-08-25T05:48:59.595Z,100.00
2022-08-25T05:51:26.569Z,100.00
2022-08-25T05:53:53.254Z,100.00
2022-08-25T05:56:19.820Z,100.00
2022-08-25T05:58:46.848Z,100.00
2022-08-25T06:01:45.101Z,100.00
2022-08-25T06:04:12.592Z,100.00
2022-08-25T06:06:40.103Z,100.00
2022-08-25T06:09:08.750Z,100.00
2022-08-25T06:11:36.624Z,100.00
2022-08-25T06:14:03.469Z,100.00
2022-08-25T06:16:30.458Z,100.00
2022-08-25T06:18:56.960Z,100.00
2022-08-25T06:21:23.454Z,100.00
2022-08-25T06:23:50.324Z,100.00
2022-08-25T06:26:20.749Z,100.00
2022-08-25T06:28:53.212Z,100.00
2022-08-25T06:31:20.349Z,100.00
2022-08-25T06:33:46.964Z,100.00
2022-08-25T06:36:14.037Z,100.00
2022-08-25T06:38:40.628Z,100.00
2022-08-25T06:41:10.436Z,100.00
2022-08-25T06:43:36.838Z,100.00
2022-08-25T06:46:13.538Z,100.00
2022-08-25T06:48:40.595Z,100.00
2022-08-25T06:51:08.713Z,97.54
2022-08-25T06:53:38.841Z,91.61
2022-08-25T06:56:08.894Z,91.95
2022-08-25T06:58:35.809Z,100.00
2022-08-25T07:01:22.232Z,96.21
2022-08-25T07:03:52.693Z,90.31
2022-08-25T07:06:19.835Z,94.73
2022-08-25T07:08:47.963Z,92.35
2022-08-25T07:11:16.530Z,87.04
2022-08-25T07:13:45.511Z,84.00
2022-08-25T07:16:12.920Z,83.68
2022-08-25T07:18:39.639Z,81.90
2022-08-25T07:21:08.935Z,83.59
2022-08-25T07:23:36.303Z,84.31
2022-08-25T07:29:13.916Z,86.98
2022-08-25T07:31:41.013Z,95.92
2022-08-25T07:34:28.499Z,99.70
2022-08-25T07:36:56.922Z,100.00
2022-08-25T07:39:24.903Z,95.15
2022-08-25T07:41:52.628Z,96.24
2022-08-25T07:44:22.973Z,87.93
2022-08-25T07:46:50.622Z,87.04
2022-08-25T07:49:23.236Z,84.17
2022-08-25T07:52:05.155Z,89.48
2022-08-25T07:54:37.666Z,91.84
2022-08-25T07:57:06.614Z,94.46
2022-08-25T07:59:38.914Z,90.77
2022-08-25T08:02:09.058Z,83.40
2022-08-25T08:04:49.302Z,83.65
2022-08-25T08:07:57.834Z,82.62
2022-08-25T08:14:14.476Z,82.83
2022-08-25T08:16:56.627Z,72.11
2022-08-25T08:19:35.777Z,66.44
2022-08-25T08:22:05.116Z,64.49
2022-08-25T08:24:54.491Z,66.26
2022-08-25T08:27:33.122Z,60.10
2022-08-25T08:30:04.637Z,59.59
2022-08-25T08:33:08.711Z,63.04
2022-08-25T08:36:22.812Z,63.55
2022-08-25T08:39:14.002Z,67.81
2022-08-25T08:42:16.716Z,71.28
2022-08-25T08:44:46.272Z,65.82
2022-08-25T08:47:19.022Z,69.66
2022-08-25T08:50:07.451Z,71.62
2022-08-25T08:52:54.453Z,72.30
2022-08-25T08:55:28.287Z,71.62
2022-08-25T08:57:58.241Z,69.74
2022-08-25T09:00:43.335Z,72.03
2022-08-25T09:03:35.735Z,80.38
2022-08-25T09:06:34.447Z,76.29
2022-08-25T09:09:06.944Z,83.66
2022-08-25T09:11:56.507Z,86.04
2022-08-25T09:14:42.096Z,79.13
2022-08-25T09:17:21.739Z,69.36
2022-08-25T09:20:19.026Z,63.62
2022-08-25T09:23:50.758Z,58.21
2022-08-25T09:27:16.655Z,54.87
2022-08-25T09:29:59.841Z,53.52
2022-08-25T09:32:52.560Z,51.10
2022-08-25T09:35:50.029Z,52.73
2022-08-25T09:38:31.641Z,59.80
2022-08-25T09:42:44.374Z,55.01
2022-08-25T09:49:36.226Z,53.64
2022-08-25T09:53:21.679Z,56.22
2022-08-25T09:56:00.722Z,60.47
2022-08-25T09:58:49.569Z,61.31
2022-08-25T10:01:53.875Z,62.07
2022-08-25T10:04:51.433Z,54.03
2022-08-25T10:08:34.058Z,46.70
2022-08-25T10:15:37.088Z,53.56
2022-08-25T10:24:54.895Z,61.01
2022-08-25T10:31:37.261Z,64.97
2022-08-25T10:35:16.782Z,65.33
2022-08-25T10:38:27.268Z,66.55
2022-08-25T10:45:23.649Z,49.71
2022-08-25T10:48:04.287Z,53.39
2022-08-25T10:51:25.514Z,52.95
2022-08-25T10:57:51.600Z,45.34
2022-08-25T11:00:33.729Z,46.41
2022-08-25T11:03:40.109Z,48.37
2022-08-25T11:07:00.084Z,55.43
2022-08-25T11:10:47.922Z,56.34
2022-08-25T11:13:45.621Z,54.73
2022-08-25T11:20:38.425Z,53.19
2022-08-25T11:28:01.877Z,45.96
2022-08-25T11:30:33.816Z,47.02
2022-08-25T11:34:00.446Z,46.96
2022-08-25T11:37:38.879Z,48.41
2022-08-25T11:40:52.879Z,43.65
2022-08-25T11:44:04.279Z,50.81
2022-08-25T11:47:21.928Z,50.32
2022-08-25T11:53:47.549Z,47.58
2022-08-25T11:57:18.643Z,47.96
2022-08-25T12:00:05.723Z,49.42
2022-08-25T12:03:41.684Z,52.73
2022-08-25T12:06:52.914Z,50.10
2022-08-25T12:17:42.567Z,46.58
2022-08-25T12:28:36.936Z,59.10
2022-08-25T12:31:59.081Z,64.52
2022-08-25T12:35:13.859Z,64.81
2022-08-25T12:38:52.112Z,63.24
2022-08-25T12:52:01.646Z,60.63
2022-08-25T12:59:26.714Z,62.73
2022-08-25T13:03:04.856Z,67.18
2022-08-25T13:06:27.678Z,61.96
2022-08-25T13:10:21.199Z,58.59
2022-08-25T13:16:37.328Z,63.12
2022-08-25T13:40:58.179Z,67.52
2022-08-25T13:47:43.334Z,63.49
2022-08-25T13:54:20.397Z,67.08
2022-08-25T14:09:28.370Z,67.66
2022-08-25T14:13:06.603Z,67.73
2022-08-25T14:15:58.222Z,68.77
2022-08-25T14:19:14.696Z,70.46
2022-08-25T14:26:38.632Z,73.79
2022-08-25T14:30:13.306Z,69.31
2022-08-25T14:33:16.240Z,68.01
2022-08-25T14:40:01.007Z,69.88
2022-08-25T14:42:38.124Z,70.97
2022-08-25T14:45:14.886Z,72.47
2022-08-25T14:48:13.805Z,71.52
2022-08-25T14:50:51.490Z,73.08
2022-08-25T14:53:54.861Z,73.67
2022-08-25T15:00:47.088Z,78.81
2022-08-25T15:14:18.323Z,72.91
2022-08-25T15:17:09.753Z,73.23
2022-08-25T15:24:04.574Z,74.60
2022-08-25T15:29:50.730Z,73.74
2022-08-25T15:32:17.411Z,72.34
2022-08-25T15:34:45.295Z,77.15
2022-08-25T15:37:15.625Z,77.15
2022-08-25T15:39:44.845Z,77.72
2022-08-25T15:42:15.188Z,78.48
2022-08-25T15:44:42.673Z,78.32
2022-08-25T15:47:21.086Z,83.43
2022-08-25T15:49:47.569Z,83.55
2022-08-25T15:52:14.493Z,81.98
2022-08-25T15:54:40.984Z,83.70
2022-08-25T15:57:09.124Z,83.33
2022-08-25T15:59:35.990Z,81.05
2022-08-25T16:02:15.223Z,83.19
2022-08-25T16:04:41.920Z,81.83
2022-08-25T16:07:09.794Z,79.96
2022-08-25T16:09:41.104Z,79.29
2022-08-25T16:12:08.639Z,80.94
2022-08-25T16:14:35.479Z,82.21
2022-08-25T16:17:02.059Z,82.85
2022-08-25T16:19:29.273Z,79.22
2022-08-25T16:21:56.223Z,82.59
2022-08-25T16:24:22.834Z,83.89
2022-08-25T16:26:50.547Z,87.29
2022-08-25T16:29:19.037Z,86.45
2022-08-25T16:31:53.083Z,87.59
2022-08-25T16:34:22.236Z,89.26
2022-08-25T16:36:52.103Z,89.23
2022-08-25T16:39:19.835Z,90.97
2022-08-25T16:41:47.217Z,90.34
2022-08-25T16:44:13.705Z,91.76
2022-08-25T16:46:41.929Z,91.39
2022-08-25T16:49:13.551Z,91.12
2022-08-25T16:51:42.895Z,92.71
2022-08-25T16:54:29.872Z,92.50
2022-08-25T16:56:57.612Z,95.35
2022-08-25T16:59:24.725Z,95.51
2022-08-25T17:01:52.360Z,97.68
2022-08-25T17:04:19.755Z,98.20
2022-08-25T17:06:51.617Z,98.19
2022-08-25T17:09:23.810Z,99.26
2022-08-25T17:11:52.688Z,99.40
2022-08-25T17:14:21.554Z,100.00
2022-08-25T17:16:48.634Z,100.00
2022-08-25T17:19:17.481Z,100.00
2022-08-25T17:21:46.115Z,100.00
2022-08-25T17:24:13.615Z,100.00
2022-08-25T17:26:42.090Z,100.00
2022-08-25T17:29:09.287Z,100.00
2022-08-25T17:31:39.621Z,100.00
2022-08-25T17:34:09.382Z,100.00
2022-08-25T17:36:36.585Z,100.00
2022-08-25T17:39:06.968Z,100.00
2022-08-25T17:41:33.598Z,100.00
2022-08-25T17:44:04.364Z,100.00
2022-08-25T17:46:31.004Z,100.00
2022-08-25T17:48:57.609Z,100.00
2022-08-25T17:51:24.929Z,100.00
2022-08-25T17:53:52.864Z,100.00
2022-08-25T17:56:23.095Z,100.00
2022-08-25T17:58:51.619Z,100.00
2022-08-25T18:01:22.310Z,100.00
2022-08-25T18:03:49.841Z,100.00
2022-08-25T18:06:16.666Z,100.00
2022-08-25T18:08:44.003Z,100.00
2022-08-25T18:11:10.466Z,100.00
2022-08-25T18:13:38.563Z,100.00
2022-08-25T18:16:05.629Z,100.00
2022-08-25T18:18:34.340Z,100.00
2022-08-25T18:21:02.115Z,100.00
2022-08-25T18:23:29.800Z,100.00
2022-08-25T18:26:00.828Z,100.00
2022-08-25T18:28:28.789Z,100.00
2022-08-25T18:30:55.670Z,100.00
2022-08-25T18:33:23.018Z,100.00
2022-08-25T18:35:49.780Z,100.00
2022-08-25T18:38:37.511Z,100.00
2022-08-25T18:41:06.194Z,100.00
2022-08-25T18:43:33.984Z,100.00
2022-08-25T18:46:01.864Z,100.00
2022-08-25T18:48:28.476Z,100.00
2022-08-25T18:50:56.622Z,100.00
2022-08-25T18:53:36.672Z,100.00
2022-08-25T18:56:05.540Z,100.00
2022-08-25T18:58:31.955Z,100.00
2022-08-25T19:00:58.743Z,100.00
2022-08-25T19:03:28.524Z,100.00
2022-08-25T19:05:57.533Z,100.00
2022-08-25T19:08:25.009Z,100.00
2022-08-25T19:10:53.600Z,100.00
2022-08-25T19:13:22.451Z,100.00
2022-08-25T19:15:50.857Z,100.00
2022-08-25T19:18:18.286Z,100.00
2022-08-25T19:20:45.127Z,100.00
2022-08-25T19:23:12.950Z,100.00
2022-08-25T19:25:41.777Z,100.00
2022-08-25T19:28:11.911Z,100.00
2022-08-25T19:30:39.266Z,100.00
2022-08-25T19:33:31.439Z,100.00
2022-08-25T19:36:04.971Z,100.00
2022-08-25T19:38:35.389Z,100.00
2022-08-25T19:41:02.571Z,100.00
2022-08-25T19:43:36.035Z,100.00
2022-08-25T19:46:02.672Z,100.00
2022-08-25T19:48:29.555Z,100.00
2022-08-25T19:50:56.326Z,100.00
2022-08-25T19:53:23.145Z,100.00
2022-08-25T19:55:49.959Z,100.00
2022-08-25T19:58:16.781Z,100.00
2022-08-25T20:00:47.118Z,100.00
2022-08-25T20:03:17.341Z,100.00
2022-08-25T20:05:43.864Z,100.00
2022-08-25T20:08:10.361Z,100.00
2022-08-25T20:10:42.022Z,100.00
2022-08-25T20:13:09.673Z,100.00
2022-08-25T20:15:39.001Z,100.00
2022-08-25T20:18:06.163Z,100.00
2022-08-25T20:20:34.603Z,100.00
2022-08-25T20:23:21.289Z,100.00
2022-08-25T20:25:51.810Z,100.00
2022-08-25T20:28:18.628Z,100.00
2022-08-25T20:30:45.961Z,100.00
2022-08-25T20:33:12.654Z,100.00
2022-08-25T20:35:39.889Z,100.00
2022-08-25T20:38:07.548Z,100.00
2022-08-25T20:40:34.621Z,100.00
2022-08-25T20:43:04.381Z,100.00
2022-08-25T20:45:31.152Z,100.00
2022-08-25T20:47:57.703Z,100.00
2022-08-25T20:50:24.501Z,100.00
2022-08-25T20:52:52.131Z,100.00
2022-08-25T20:55:18.953Z,100.00
2022-08-25T20:57:45.855Z,100.00
2022-08-25T21:00:12.931Z,100.00
2022-08-25T21:02:39.548Z,100.00
2022-08-25T21:05:07.247Z,100.00
2022-08-25T21:07:35.788Z,100.00
2022-08-25T21:10:07.151Z,100.00
2022-08-25T21:12:38.807Z,100.00
2022-08-25T21:15:05.873Z,100.00
2022-08-25T21:17:33.698Z,100.00
2022-08-25T21:20:00.516Z,100.00
2022-08-25T21:22:27.596Z,100.00
2022-08-25T21:24:54.949Z,100.00
2022-08-25T21:27:21.363Z,100.00
2022-08-25T21:29:55.196Z,100.00
2022-08-25T21:32:23.371Z,100.00
2022-08-25T21:34:56.777Z,100.00
2022-08-25T21:37:23.696Z,100.00
2022-08-25T21:39:50.769Z,100.00
2022-08-25T21:42:17.548Z,100.00
2022-08-25T21:44:44.092Z,100.00
2022-08-25T21:47:10.842Z,100.00
2022-08-25T21:49:37.802Z,100.00
2022-08-25T21:52:04.871Z,100.00
2022-08-25T21:54:31.990Z,100.00
2022-08-25T21:57:01.568Z,100.00
2022-08-25T21:59:30.842Z,100.00
2022-08-25T22:01:58.943Z,100.00
2022-08-25T22:04:25.624Z,100.00
2022-08-25T22:06:52.085Z,100.00
2022-08-25T22:09:18.556Z,100.00
2022-08-25T22:11:46.320Z,100.00
2022-08-25T22:14:15.048Z,100.00
2022-08-25T22:16:42.491Z,100.00
2022-08-25T22:19:11.304Z,100.00
2022-08-25T22:21:38.328Z,100.00
2022-08-25T22:24:05.343Z,100.00
2022-08-25T22:26:32.898Z,100.00
2022-08-25T22:28:59.821Z,100.00
2022-08-25T22:31:27.519Z,100.00
2022-08-25T22:33:57.697Z,100.00
2022-08-25T22:36:29.841Z,100.00
2022-08-25T22:38:56.988Z,100.00
2022-08-25T22:41:26.022Z,100.00
2022-08-25T22:43:55.424Z,100.00
2022-08-25T22:46:22.951Z,100.00
2022-08-25T22:48:51.457Z,100.00
2022-08-25T22:51:21.897Z,100.00
2022-08-25T22:53:49.070Z,100.00
2022-08-25T22:56:17.683Z,100.00
2022-08-25T22:58:51.762Z,100.00
2022-08-25T23:01:19.751Z,100.00
2022-08-25T23:03:46.433Z,100.00
2022-08-25T23:06:24.566Z,100.00
2022-08-25T23:08:53.692Z,100.00
2022-08-25T23:11:25.650Z,100.00
2022-08-25T23:14:06.352Z,100.00
2022-08-25T23:16:34.015Z,100.00
2022-08-25T23:19:02.225Z,100.00
2022-08-25T23:21:49.125Z,100.00
2022-08-25T23:24:29.335Z,100.00
2022-08-25T23:27:02.338Z,100.00
2022-08-25T23:29:31.016Z,100.00
2022-08-25T23:31:58.881Z,100.00
2022-08-25T23:34:28.674Z,100.00
2022-08-25T23:36:57.052Z,100.00
2022-08-25T23:39:23.837Z,100.00
2022-08-25T23:41:51.375Z,100.00
2022-08-25T23:44:18.890Z,100.00
2022-08-25T23:46:47.058Z,100.00
2022-08-25T23:49:14.842Z,100.00
2022-08-25T23:51:48.777Z,100.00
2022-08-25T23:54:16.395Z,100.00
2022-08-25T23:56:51.431Z,100.00
2022-08-25T23:59:19.099Z,100.00
